Terminal Aerodrome Forecast
Issued by NWS

Home | Current Version | Previous Version | Text Only | Print | Product List | Glossary On
Versions: 1 2 3 4 5 6 7 8 9 10 11 12
000
FTUS44 KEPZ 280526
TAFTCS
TAF
KTCS 280526Z 2806/2906 30007KT P6SM FEW100 SCT250
     FM281800 13006KT P6SM BKN250
     FM290000 25009KT P6SM VCTS BKN050CB BKN250=

USA.gov is the U.S. government's official web portal to all federal, state and local government web resources and services.